Flight Track Log - Related Links

Times and Time Zones

All times are in EDT time to prevent confusion due to time zone crossing. See the N741FX flight status page for this flight to view local times or setup timezone preferences in your user account.

Time Position Orientation Groundspeed Altitude Reporting Facility
EDT Latitude Longitude Course Direction KTS MPH feet Rate Location/Type
Thu 11:00:16 AM 35.0333 -89.9667 219° Southwest 112 129 800  Level KMEM
Thu 11:01:31 AM 35.0000 -90.0000 219° Southwest 93 107 1,900 838 Climbing KMEM
Thu 11:02:32 AM 34.9833 -90.0167 219° Southwest 96 110 2,700 757 Climbing KMEM
Thu 11:03:22 AM 34.9667 -90.0333 219° Southwest 96 110 3,300 787 Climbing KMEM
Thu 11:04:34 AM 34.9333 -90.0667 219° Southwest 104 120 4,300 773 Climbing KMEM
Thu 11:05:34 AM 34.9333 -90.1000 270° West 113 130 5,000 667 Climbing KMEM
Thu 11:06:40 AM 34.9333 -90.1333 270° West 109 125 5,700 571 Climbing KMEM
Thu 11:07:40 AM 34.9167 -90.1833 248° West 116 133 6,200 550 Climbing KMEM
Thu 11:08:40 AM 34.9167 -90.2167 270° West 117 135 6,800 550 Climbing KMEM
Thu 11:09:40 AM 34.9000 -90.2500 239° Southwest 117 135 7,300 550 Climbing KMEM
Thu 11:10:40 AM 34.9000 -90.2833 270° West 116 133 7,900 350 Climbing KMEM
Thu 11:11:40 AM 34.8833 -90.3333 248° West 121 139 8,000  Climbing KMEM
Thu 11:12:40 AM 34.8833 -90.3833 270° West 141 162 7,900  Descending KMEM
Thu 11:13:44 AM 34.8656 -90.4306 245° Southwest 157 181 8,000 48 Climbing Memphis Center
Thu 11:14:44 AM 34.8550 -90.4736 253° West 146 168 8,000  Level Memphis Center
Thu 11:15:44 AM 34.8467 -90.5164 257° West 137 158 8,000  Level Memphis Center
Thu 11:16:44 AM 34.8361 -90.5619 254° West 137 158 8,000  Level Memphis Center
Thu 11:17:44 AM 34.8256 -90.6100 255° West 142 163 8,000  Level Memphis Center
Thu 11:18:44 AM 34.8172 -90.6506 256° West 147 169 8,000  Level Memphis Center
Thu 11:19:44 AM 34.8067 -90.6986 255° West 147 169 8,000  Level Memphis Center
Thu 11:20:44 AM 34.7939 -90.7442 251° West 147 169 8,000  Level Memphis Center
Thu 11:21:44 AM 34.7833 -90.7919 255° West 147 169 8,000  Level Memphis Center
Thu 11:22:44 AM 34.7728 -90.8400 255° West 147 169 8,000  Level Memphis Center
Thu 11:23:44 AM 34.7622 -90.8906 256° West 147 169 8,000  Level Memphis Center
Thu 11:24:44 AM 34.7494 -90.9408 253° West 152 175 8,000  Level Memphis Center
Thu 11:25:44 AM 34.7386 -90.9939 256° West 152 175 8,000  Level Memphis Center
Thu 11:26:44 AM 34.7281 -91.0419 255° West 147 169 8,000  Level Memphis Center
Thu 11:27:44 AM 34.7172 -91.0925 255° West 147 169 8,000  Level Memphis Center
Thu 11:28:44 AM 34.7044 -91.1428 253° West 147 169 8,000  Level Memphis Center
Thu 11:29:44 AM 34.6936 -91.1906 255° West 152 175 8,000  Level Memphis Center
Thu 11:30:31 AM 34.6831 -91.2361 254° West 154 177 8,000  Level Memphis Center
Thu 11:31:20 AM 34.6722 -91.2764 252° West 154 177 8,000  Level Memphis Center
Thu 11:31:44 AM 34.6722 -91.2939 270° West 152 175 8,000  Level Memphis Center
Thu 11:32:20 AM 34.6614 -91.3217 245° Southwest 153 176 8,000  Level Memphis Center
Thu 11:32:44 AM 34.6572 -91.3419 256° West 152 175 8,000  Level Memphis Center
Thu 11:33:27 AM 34.6486 -91.3794 254° West 153 176 8,000  Level Memphis Center
Thu 11:33:44 AM 34.6464 -91.3897 255° West 152 175 8,000  Level Memphis Center
Thu 11:34:34 AM 34.6356 -91.4325 253° West 149 171 8,000  Level Memphis Center
Thu 11:35:40 AM 34.6225 -91.4853 253° West 146 168 8,000  Level Memphis Center
Thu 11:36:41 AM 34.6139 -91.5331 258° West 148 170 8,000  Level Memphis Center
Thu 11:37:30 AM 34.6050 -91.5708 254° West 147 169 8,000  Level Memphis Center
Thu 11:38:30 AM 34.5919 -91.6236 253° West 149 171 8,000  Level Memphis Center
Thu 11:39:31 AM 34.5833 -91.6714 258° West 150 173 8,000  Level Memphis Center
Thu 11:40:32 AM 34.5703 -91.7192 252° West 149 171 8,000  Level Memphis Center
Thu 11:41:33 AM 34.5592 -91.7669 254° West 143 165 8,000  Level Memphis Center
Thu 11:42:34 AM 34.5503 -91.8122 257° West 140 161 8,000  Level Memphis Center
Thu 11:43:34 AM 34.5372 -91.8597 252° West 140 161 8,000  Level Memphis Center
Thu 11:45:36 AM 34.5175 -91.9478 255° West 141 162 8,000  Level Memphis Center
Thu 11:46:31 AM 34.5086 -91.9903 256° West 142 163 8,000  Level Memphis Center
Thu 11:47:37 AM 34.4953 -92.0406 252° West 142 163 8,000  Level Memphis Center
Thu 11:48:38 AM 34.4864 -92.0908 258° West 139 160 8,000  Level Memphis Center
Thu 11:49:39 AM 34.4753 -92.1358 253° West 140 161 8,000  Level Memphis Center
Thu 11:50:39 AM 34.4619 -92.1833 251° West 142 163 8,000  Level Memphis Center
Thu 11:51:40 AM 34.4531 -92.2261 256° West 143 165 8,000  Level Memphis Center
Thu 11:52:41 AM 34.4419 -92.2736 254° West 138 159 8,000  Level Memphis Center
Thu 11:53:41 AM 34.4286 -92.3161 249° West 137 158 8,000  Level Memphis Center
Thu 11:54:44 AM 34.4217 -92.3564 258° West 137 158 8,000  Level Memphis Center
Thu 11:55:44 AM 34.4106 -92.4014 253° West 137 158 8,000  Level Memphis Center
Thu 11:56:44 AM 34.3994 -92.4414 251° West 142 163 8,000  Level Memphis Center
Thu 11:57:44 AM 34.3906 -92.4864 257° West 142 163 8,000  Level Memphis Center
Thu 11:58:44 AM 34.3792 -92.5314 253° West 142 163 8,000  Level Memphis Center
Thu 11:59:44 AM 34.3700 -92.5767 256° West 142 163 8,000  Level Memphis Center
Thu 12:00:44 PM 34.3589 -92.6189 252° West 142 163 8,000  Level Memphis Center
Thu 12:01:44 PM 34.3497 -92.6614 255° West 142 163 8,000  Level Memphis Center
Thu 12:02:44 PM 34.3386 -92.7064 253° West 142 163 8,000  Level Memphis Center
Thu 12:03:44 PM 34.3269 -92.7589 255° West 147 169 8,000  Level Memphis Center
Thu 12:04:44 PM 34.3136 -92.8014 249° West 147 169 8,000  Level Memphis Center
Thu 12:05:44 PM 34.3044 -92.8464 256° West 142 163 8,000  Level Memphis Center
Thu 12:06:44 PM 34.2953 -92.8914 256° West 142 163 8,000  Level Memphis Center
Thu 12:07:44 PM 34.2819 -92.9361 250° West 147 169 8,000  Level Memphis Center
Thu 12:08:44 PM 34.2725 -92.9811 256° West 147 169 8,000  Level Memphis Center
Thu 12:09:44 PM 34.2611 -93.0286 254° West 152 175 8,000  Level Memphis Center
Thu 12:10:44 PM 34.2478 -93.0708 249° West 152 175 8,000  Level Memphis Center
Thu 12:12:49 PM 34.2244 -93.1611 253° West 153 176 8,000  Level Fort Worth Center
Thu 12:13:49 PM 34.2156 -93.2069 257° West 147 169 8,000  Level Fort Worth Center
Thu 12:14:50 PM 34.2025 -93.2528 251° West 147 169 8,000  Level Fort Worth Center
Thu 12:15:49 PM 34.1917 -93.3008 255° West 147 169 8,000  Level Fort Worth Center
Thu 12:16:49 PM 34.1783 -93.3467 251° West 147 169 8,000  Level Fort Worth Center
Thu 12:17:50 PM 34.1675 -93.3925 254° West 147 169 8,000  Level Fort Worth Center
Thu 12:18:49 PM 34.1564 -93.4381 254° West 147 169 8,000  Level Fort Worth Center
Thu 12:19:49 PM 34.1453 -93.4864 254° West 147 169 8,000  Level Fort Worth Center
Thu 12:20:49 PM 34.1319 -93.5269 248° West 147 169 8,000  Level Fort Worth Center
Thu 12:21:49 PM 34.1211 -93.5775 256° West 147 169 8,000  Level Fort Worth Center
Thu 12:22:49 PM 34.1097 -93.6208 252° West 147 169 8,000  Level Fort Worth Center
Thu 12:23:50 PM 34.0986 -93.6664 254° West 147 169 8,000  Level Fort Worth Center
Thu 12:24:49 PM 34.0897 -93.7119 257° West 147 169 8,000  Level Fort Worth Center
Thu 12:25:49 PM 34.0761 -93.7553 249° West 147 169 8,000  Level Fort Worth Center
Thu 12:26:50 PM 34.0650 -93.7958 252° West 147 169 8,000  Level Fort Worth Center
Thu 12:27:49 PM 34.0581 -93.8436 260° West 147 169 8,000  Level Fort Worth Center
Thu 12:28:49 PM 34.0508 -93.8892 259° West 147 169 8,000  Level Fort Worth Center
Thu 12:29:50 PM 34.0458 -93.9344 262° West 147 169 8,000  Level Fort Worth Center
Thu 12:30:49 PM 34.0408 -93.9822 263° West 147 169 8,000  Level Fort Worth Center
Thu 12:31:49 PM 34.0339 -94.0300 260° West 147 169 8,000  Level Fort Worth Center
Thu 12:32:49 PM 34.0269 -94.0781 260° West 147 169 8,000  Level Fort Worth Center
Thu 12:33:49 PM 34.0217 -94.1233 262° West 142 163 8,000  Level Fort Worth Center
Thu 12:34:49 PM 34.0167 -94.1711 263° West 142 163 8,000  Level Fort Worth Center
Thu 12:35:50 PM 34.0097 -94.2214 261° West 142 163 8,000  Level Fort Worth Center
Thu 12:36:49 PM 34.0047 -94.2692 263° West 142 163 8,000 -50 Level Fort Worth Center
Thu 12:37:49 PM 33.9994 -94.3169 262° West 142 163 7,900 -50 Descending Fort Worth Center
Thu 12:38:50 PM 33.9944 -94.3672 263° West 142 163 7,900  Level Fort Worth Center
Thu 12:39:49 PM 33.9875 -94.4178 261° West 142 163 7,900  Level Fort Worth Center
Thu 12:40:49 PM 33.9822 -94.4653 262° West 142 163 7,900  Level Fort Worth Center
Thu 12:41:49 PM 33.9792 -94.5131 266° West 142 163 7,900  Level Fort Worth Center
Thu 12:42:49 PM 33.9719 -94.5608 260° West 147 169 7,900  Level Fort Worth Center
Thu 12:43:49 PM 33.9647 -94.6086 260° West 142 163 7,900  Level Fort Worth Center
Thu 12:44:50 PM 33.9614 -94.6539 265° West 147 169 7,900  Level Fort Worth Center
Thu 12:45:49 PM 33.9542 -94.6992 259° West 147 169 7,900  Level Fort Worth Center
Thu 12:46:49 PM 33.9489 -94.7494 263° West 147 169 7,900  Level Fort Worth Center
Thu 12:47:49 PM 33.9436 -94.7972 262° West 147 169 7,900  Level Fort Worth Center
Thu 12:48:49 PM 33.9364 -94.8450 260° West 142 163 7,900  Level Fort Worth Center
Thu 12:49:49 PM 33.9331 -94.8900 265° West 142 163 7,900  Level Fort Worth Center
Thu 12:50:50 PM 33.9236 -94.9406 257° West 142 163 7,900  Level Fort Worth Center
Thu 12:51:49 PM 33.9183 -94.9856 262° West 147 169 7,900  Level Fort Worth Center
Thu 12:52:49 PM 33.9131 -95.0358 263° West 147 169 7,900  Level Fort Worth Center
Thu 12:57:57 PM 33.9140 -95.2890 263° West 155 178  Descending FlightAware ADS-B
Thu 12:58:22 PM 33.9190 -95.3100 286° West 155 178 128 Level FlightAware ADS-B
Thu 12:59:12 PM 33.9310 -95.3530 289° West 152 175 129 Level FlightAware ADS-B
Thu 12:59:27 PM 33.9330 -95.3640 282° West 153 176 130 Level FlightAware ADS-B
Thu 12:59:52 PM 33.9380 -95.3830 288° West 153 176 131 Level FlightAware ADS-B
Thu 01:01:47 PM 33.9640 -95.4760 289° West 151 174 132 Level FlightAware ADS-B
Thu 01:02:12 PM 33.9690 -95.4970 286° West 149 171 136 Level FlightAware ADS-B
Thu 01:02:37 PM 33.9750 -95.5170 290° West 151 174 137 Level FlightAware ADS-B
Thu 01:03:12 PM 33.9820 -95.5450 287° West 152 175 138 Level FlightAware ADS-B
Thu 01:03:37 PM 33.9880 -95.5650 290° West 151 174 139 Level FlightAware ADS-B
Thu 01:04:02 PM 33.9930 -95.5840 288° West 151 174 141 Level FlightAware ADS-B
Thu 01:04:27 PM 33.9990 -95.6030 291° West 151 174 142 Level FlightAware ADS-B
Thu 01:06:27 PM 34.0280 -95.7000 290° West 155 178 143 Level FlightAware ADS-B
Thu 01:06:37 PM 34.0310 -95.7070 297° West 155 178 148 Level FlightAware ADS-B
Thu 01:07:02 PM 34.0370 -95.7260 291° West 155 178 148 Level FlightAware ADS-B
Thu 01:07:37 PM 34.0460 -95.7580 289° West 154 177 150 Level FlightAware ADS-B
Thu 01:08:07 PM 34.0550 -95.7830 293° West 152 175 151 Level FlightAware ADS-B
Thu 01:08:47 PM 34.0660 -95.8140 293° West 153 176 153 Level FlightAware ADS-B
Thu 01:09:27 PM 34.0750 -95.8480 288° West 151 174 155 Level FlightAware ADS-B
Thu 01:09:57 PM 34.0730 -95.8710 264° West 143 165 157 Level FlightAware ADS-B
Thu 01:10:37 PM 34.0670 -95.8990 256° West 144 166 158 Level FlightAware ADS-B
Thu 01:13:57 PM 34.0170 -96.0570 249° West 148 170 161 Level FlightAware ADS-B
Thu 01:14:12 PM 34.0140 -96.0690 253° West 146 168 172 Level FlightAware ADS-B
Thu 01:14:37 PM 34.0080 -96.0880 249° West 144 166 173 Level FlightAware ADS-B
Thu 01:15:07 PM 34.0020 -96.1110 253° West 146 168 175 Level FlightAware ADS-B
Thu 01:15:32 PM 33.9970 -96.1300 252° West 145 167 177 Level FlightAware ADS-B
Thu 01:15:37 PM 33.9960 -96.1340 253° West 144 166 178 Level FlightAware ADS-B
Thu 01:16:17 PM 33.9880 -96.1650 253° West 143 165 179 Level FlightAware ADS-B
Thu 01:16:42 PM 33.9830 -96.1840 252° West 145 167 181 Level FlightAware ADS-B
Thu 01:17:12 PM 33.9770 -96.2060 252° West 142 163 183 Level FlightAware ADS-B
Thu 01:17:37 PM 33.9720 -96.2250 252° West 137 158 185 Level FlightAware ADS-B
Thu 01:18:07 PM 33.9660 -96.2480 253° West 137 158 187 Level FlightAware ADS-B
Thu 01:18:37 PM 33.9610 -96.2670 252° West 137 158 189 Level FlightAware ADS-B
Thu 01:19:02 PM 33.9550 -96.2890 252° West 137 158 192 Level FlightAware ADS-B
Thu 01:19:17 PM 33.9520 -96.2980 248° West 138 159 194 Level FlightAware ADS-B
Thu 01:19:42 PM 33.9470 -96.3160 251° West 138 159 195 Level FlightAware ADS-B
Thu 01:20:02 PM 33.9430 -96.3310 252° West 136 157 197 Level FlightAware ADS-B
Thu 01:20:27 PM 33.9380 -96.3490 251° West 136 157 198 Level FlightAware ADS-B
Thu 01:20:57 PM 33.9320 -96.3700 251° West 137 158 201 Level FlightAware ADS-B
Thu 01:21:22 PM 33.9270 -96.3890 252° West 136 157 203 Level FlightAware ADS-B
Thu 01:21:52 PM 33.9220 -96.4110 255° West 136 157 205 Level FlightAware ADS-B
Thu 01:22:17 PM 33.9160 -96.4300 249° West 138 159 208 Level FlightAware ADS-B
Thu 01:22:47 PM 33.9110 -96.4510 254° West 138 159 210 Level FlightAware ADS-B
Thu 01:23:17 PM 33.9050 -96.4730 252° West 140 161 213 Level FlightAware ADS-B
Thu 01:23:42 PM 33.9000 -96.4920 252° West 138 159 216 Level FlightAware ADS-B
Thu 01:24:12 PM 33.8940 -96.5140 252° West 138 159 219 Level FlightAware ADS-B
Thu 01:24:37 PM 33.8890 -96.5310 250° West 138 159 222 Level FlightAware ADS-B
Thu 01:25:07 PM 33.8840 -96.5530 255° West 135 155 224 Level FlightAware ADS-B
Thu 01:25:22 PM 33.8810 -96.5650 253° West 134 154 228 Level FlightAware ADS-B
Thu 01:25:47 PM 33.8760 -96.5820 250° West 135 155 229 Level FlightAware ADS-B
Thu 01:26:17 PM 33.8700 -96.6040 252° West 136 157 232 Level FlightAware ADS-B
Thu 01:26:32 PM 33.8670 -96.6160 253° West 138 159 235 Level FlightAware ADS-B
Thu 01:27:12 PM 33.8600 -96.6440 253° West 136 157 237 Level FlightAware ADS-B
Thu 01:27:27 PM 33.8560 -96.6560 248° West 138 159 242 Level FlightAware ADS-B
Thu 01:27:57 PM 33.8510 -96.6770 254° West 138 159 244 Level FlightAware ADS-B
Thu 01:28:22 PM 33.8460 -96.6960 252° West 139 160 248 Level FlightAware ADS-B
Thu 01:28:52 PM 33.8400 -96.7180 252° West 139 160 251 Level FlightAware ADS-B
Thu 01:29:17 PM 33.8350 -96.7350 251° West 139 160 255 Level FlightAware ADS-B
Thu 01:29:47 PM 33.8290 -96.7580 253° West 140 161 259 Level FlightAware ADS-B
Thu 01:30:02 PM 33.8260 -96.7700 253° West 141 162 263 Level FlightAware ADS-B
Thu 01:30:27 PM 33.8210 -96.7880 252° West 137 158 265 Level FlightAware ADS-B
Thu 01:31:02 PM 33.8140 -96.8130 251° West 137 158 269 Level FlightAware ADS-B
Thu 01:31:27 PM 33.8090 -96.8330 253° West 139 160 274 Level FlightAware ADS-B
Thu 01:31:52 PM 33.8040 -96.8500 251° West 140 161 278 Level FlightAware ADS-B
Thu 01:32:07 PM 33.8010 -96.8610 252° West 140 161 282 Level FlightAware ADS-B
Thu 01:32:37 PM 33.7940 -96.8850 251° West 141 162 285 Level FlightAware ADS-B
Thu 01:33:02 PM 33.7900 -96.9020 254° West 141 162 290 Level FlightAware ADS-B
Thu 01:33:32 PM 33.7840 -96.9240 252° West 140 161 295 Level FlightAware ADS-B
Thu 01:33:57 PM 33.7790 -96.9410 251° West 142 163 300 Level FlightAware ADS-B
Thu 01:34:07 PM 33.7760 -96.9510 250° West 141 162 305 Level FlightAware ADS-B
Thu 01:34:32 PM 33.7720 -96.9690 255° West 141 162 307 Level FlightAware ADS-B
Thu 01:36:07 PM 33.7520 -97.0400 251° West 140 161 312 Level FlightAware ADS-B
Thu 01:36:32 PM 33.7470 -97.0590 252° West 139 160 333 Level FlightAware ADS-B
Thu 01:37:02 PM 33.7410 -97.0780 249° West 139 160 339 Level FlightAware ADS-B
Thu 01:37:32 PM 33.7350 -97.1020 253° West 143 165 346 Level FlightAware ADS-B
Thu 01:37:52 PM 33.7310 -97.1180 253° West 142 163 354 Level FlightAware ADS-B
Thu 01:38:07 PM 33.7270 -97.1320 251° West 144 166 360 Level FlightAware ADS-B
Thu 01:38:37 PM 33.7220 -97.1510 252° West 142 163 364 Level FlightAware ADS-B
Thu 01:39:07 PM 33.7150 -97.1750 251° West 146 168 372 Level FlightAware ADS-B
Thu 01:39:37 PM 33.7090 -97.1990 253° West 143 165 381 Level FlightAware ADS-B
Thu 01:40:02 PM 33.7040 -97.2170 252° West 141 162 391 Level FlightAware ADS-B
Thu 01:40:32 PM 33.6970 -97.2410 251° West 143 165 399 Level FlightAware ADS-B
Thu 01:40:47 PM 33.6940 -97.2520 252° West 144 166 409 Level FlightAware ADS-B
Thu 01:41:07 PM 33.6890 -97.2680 249° West 144 166 415 Level FlightAware ADS-B
Thu 01:41:42 PM 33.6820 -97.2930 251° West 145 167 422 Level FlightAware ADS-B
Thu 01:42:07 PM 33.6770 -97.3120 252° West 146 168 436 Level FlightAware ADS-B
Thu 01:42:37 PM 33.6710 -97.3350 253° West 140 161 446 Level FlightAware ADS-B
Thu 01:43:07 PM 33.6640 -97.3580 250° West 146 168 459 Level FlightAware ADS-B
Thu 01:43:47 PM 33.6560 -97.3860 251° West 142 163 473 Level FlightAware ADS-B
Thu 01:44:17 PM 33.6500 -97.4090 253° West 144 166 492 Level FlightAware ADS-B
Thu 01:44:42 PM 33.6440 -97.4290 250° West 144 166 508 Level FlightAware ADS-B
Thu 01:44:57 PM 33.6420 -97.4390 256° West 142 163 522 Level FlightAware ADS-B
Thu 01:45:27 PM 33.6340 -97.4650 250° West 146 168 531 Level FlightAware ADS-B
Thu 01:45:52 PM 33.6300 -97.4840 256° West 144 166 549 Level FlightAware ADS-B
Thu 01:46:22 PM 33.6240 -97.5070 253° West 145 167 566 Level FlightAware ADS-B
Thu 01:46:47 PM 33.6190 -97.5270 253° West 152 175 587 Level FlightAware ADS-B
Thu 01:47:17 PM 33.6120 -97.5500 250° West 143 165 605 Level FlightAware ADS-B
Thu 01:47:47 PM 33.6060 -97.5720 252° West 139 160 629 Level FlightAware ADS-B
Thu 01:48:02 PM 33.6030 -97.5830 252° West 151 174 656 Level FlightAware ADS-B
Thu 01:48:27 PM 33.5970 -97.6030 250° West 155 178 669 Level FlightAware ADS-B
Thu 01:48:57 PM 33.5900 -97.6290 252° West 150 173 694 Level FlightAware ADS-B
Thu 01:49:22 PM 33.5850 -97.6460 251° West 150 173 726 Level FlightAware ADS-B
Thu 01:49:57 PM 33.5780 -97.6710 251° West 142 163 755 Level FlightAware ADS-B
Thu 01:54:17 PM 33.5080 -97.8700 247° West 147 169 799 Level FlightAware ADS-B
Thu 01:54:47 PM 33.4960 -97.8880 231° Southwest 132 152 1,423 Level FlightAware ADS-B
Thu 01:55:02 PM 33.4920 -97.8950 236° Southwest 126 145 1,564 Level FlightAware ADS-B
Thu 01:55:42 PM 33.4750 -97.9210 232° Southwest 142 163 1,646 Level FlightAware ADS-B
Thu 01:56:17 PM 33.4620 -97.9420 233° Southwest 146 168 1,911 Level FlightAware ADS-B
Thu 01:56:52 PM 33.4480 -97.9670 236° Southwest 155 178 2,225 Level FlightAware ADS-B
Thu 01:57:17 PM 33.4370 -97.9850 234° Southwest 153 176 2,663 Level FlightAware ADS-B
Thu 01:57:42 PM 33.4280 -98.0010 236° Southwest 153 176 3,098 Level FlightAware ADS-B
Thu 01:58:27 PM 33.4080 -98.0330 233° Southwest 146 168 3,703 Level FlightAware ADS-B
Thu 01:58:47 PM 33.4020 -98.0450 239° Southwest 146 168 5,711 Level FlightAware ADS-B
Thu 01:59:50 PM 33.3742 -98.0875 239° Southwest 148 170 7,900 3,854 Climbing Fort Worth Center
Thu 02:00:50 PM 33.3553 -98.1222 237° Southwest 148 170 7,900  Level Fort Worth Center
Thu 02:01:49 PM 33.3319 -98.1642 236° Southwest 148 170 7,900  Level Fort Worth Center
Thu 02:02:50 PM 33.3067 -98.2064 234° Southwest 148 170 7,900 50 Level Fort Worth Center
Thu 02:03:49 PM 33.2814 -98.2458 233° Southwest 148 170 8,000 50 Climbing Fort Worth Center
Thu 02:04:49 PM 33.2603 -98.2831 236° Southwest 148 170 8,000 -50 Level Fort Worth Center
Thu 02:05:50 PM 33.2328 -98.3272 233° Southwest 153 176 7,900  Descending Fort Worth Center
Thu 02:06:50 PM 33.2097 -98.3619 232° Southwest 148 170 8,000 101 Climbing Fort Worth Center
Thu 02:07:49 PM 33.1842 -98.4089 237° Southwest 153 176 8,100  Climbing Fort Worth Center
Thu 02:08:50 PM 33.1589 -98.4483 233° Southwest 153 176 8,000  Descending Fort Worth Center
Thu 02:09:50 PM 33.1292 -98.4950 233° Southwest 158 182 8,100  Climbing Fort Worth Center
Thu 02:10:50 PM 33.0997 -98.5392 231° Southwest 164 189 8,000 -50 Descending Fort Worth Center
Thu 02:11:50 PM 33.0783 -98.5861 241° Southwest 164 189 8,000 -50 Level Fort Worth Center
Thu 02:12:50 PM 33.0528 -98.6278 234° Southwest 164 189 7,900 -252 Descending Fort Worth Center
Thu 02:13:49 PM 33.0233 -98.6744 233° Southwest 169 194 7,500 -350 Descending Fort Worth Center
Thu 02:14:50 PM 32.9956 -98.7186 233° Southwest 175 201 7,200 -298 Descending Fort Worth Center
Thu 02:15:50 PM 32.9658 -98.7653 233° Southwest 175 201 6,900 -300 Descending Fort Worth Center
Thu 02:16:50 PM 32.9403 -98.8119 237° Southwest 175 201 6,600 -400 Descending Fort Worth Center
Thu 02:17:50 PM 32.9147 -98.8611 238° Southwest 175 201 6,100 -250 Descending Fort Worth Center
Thu 02:18:50 PM 32.8850 -98.9075 233° Southwest 175 201 6,100 -50 Level Fort Worth Center
Thu 02:19:50 PM 32.8572 -98.9517 233° Southwest 175 201 6,000 -50 Descending Fort Worth Center
Thu 02:20:50 PM 32.8256 -98.9906 226° Southwest 175 201 6,000  Level Fort Worth Center
Thu 02:21:50 PM 32.8061 -99.0372 244° Southwest 175 201 6,000  Level Fort Worth Center
Thu 02:22:50 PM 32.7764 -99.0811 231° Southwest 175 201 6,000  Level Fort Worth Center
Thu 02:23:50 PM 32.7506 -99.1228 234° Southwest 175 201 6,000  Level Fort Worth Center
Thu 02:24:50 PM 32.7231 -99.1667 233° Southwest 175 201 6,000  Level Fort Worth Center
Thu 02:25:50 PM 32.6994 -99.2081 236° Southwest 175 201 6,000  Level Fort Worth Center
Thu 02:26:50 PM 32.6736 -99.2544 237° Southwest 175 201 6,000  Level Fort Worth Center
Thu 02:27:50 PM 32.6439 -99.2958 230° Southwest 175 201 6,000 -50 Level Fort Worth Center
Thu 02:28:49 PM 32.6203 -99.3397 237° Southwest 175 201 5,900 -250 Descending Fort Worth Center
Thu 02:29:50 PM 32.5922 -99.3886 236° Southwest 175 201 5,500 -400 Descending Fort Worth Center
Thu 02:30:49 PM 32.5644 -99.4347 234° Southwest 180 207 5,100 -400 Descending Fort Worth Center
Thu 02:31:50 PM 32.5367 -99.4783 233° Southwest 175 201 4,700 -397 Descending Fort Worth Center
Thu 02:32:50 PM 32.5086 -99.5247 234° Southwest 175 201 4,300 -400 Descending Fort Worth Center
Thu 02:33:50 PM 32.4828 -99.5708 236° Southwest 175 201 3,900 -400 Descending Fort Worth Center
Thu 02:35:00 PM 32.4506 -99.6116 227° Southwest  Level FlightAware Approximate
Thu 02:42:00 PM 32.4000 -99.6667 220° Southwest  Level FlightAware Approximate
Thu 02:43:00 PM 32.4113 -99.6819 220° Southwest  Level Estimated
Thu 02:44:00 PM 32.4113 -99.6819 220° Southwest  Level Estimated
Thu 02:45:00 PM 32.4113 -99.6819 220° Southwest  Level Estimated

Login

Don't have an account? Register now (free) for customized features, flight alerts, and more!